Time;durP1;ratioP1;P1;durP2;ratioP2;P2;SDS_P1;SDS_P2;PMS_P1;PMS_P2;Temp;Humidity;BMP_temperature;BMP_pressure;BME280_temperature;BME280_humidity;BME280_pressure;Samples;Min_cycle;Max_cycle;Signal;HPM_P1;HPM_P2
2023/04/22 00:01:25;;;;;;;7.20;6.25;;;6.70;99.90;;;;;;5046326;28;20052;-47
2023/04/22 00:03:53;;;;;;;4.65;4.07;;;6.50;99.90;;;;;;5038323;28;20417;-47
2023/04/22 00:06:21;;;;;;;9.35;5.63;;;6.10;99.90;;;;;;5045837;28;20049;-47
2023/04/22 00:08:49;;;;;;;7.75;6.22;;;6.00;99.90;;;;;;5045043;28;20056;-47
2023/04/22 00:11:16;;;;;;;9.25;5.53;;;6.20;99.90;;;;;;5043909;28;20033;-47
2023/04/22 00:13:44;;;;;;;6.22;5.63;;;6.30;99.90;;;;;;5045304;28;20056;-47
2023/04/22 00:16:11;;;;;;;5.78;5.18;;;6.40;99.90;;;;;;5046236;28;20061;-47
2023/04/22 00:18:39;;;;;;;8.32;5.95;;;6.50;99.90;;;;;;5046515;28;20382;-47
2023/04/22 00:21:07;;;;;;;7.55;5.10;;;6.60;99.90;;;;;;5046218;28;20049;-47
2023/04/22 00:23:34;;;;;;;10.18;6.13;;;6.60;99.90;;;;;;5048611;28;20052;-47
2023/04/22 00:26:02;;;;;;;10.80;6.28;;;6.70;99.90;;;;;;5046943;28;20529;-47
2023/04/22 00:28:29;;;;;;;10.68;6.03;;;6.70;99.90;;;;;;5023512;28;20052;-47
2023/04/22 00:30:57;;;;;;;5.68;5.05;;;6.80;99.90;;;;;;5033051;28;20041;-47
2023/04/22 00:33:25;;;;;;;8.68;5.97;;;6.70;99.90;;;;;;5045330;28;20505;-47
2023/04/22 00:35:53;;;;;;;6.18;5.57;;;6.40;99.90;;;;;;5032019;28;20060;-47
2023/04/22 00:38:22;;;;;;;6.63;5.80;;;6.30;99.90;;;;;;5036268;28;20062;-47
2023/04/22 00:40:49;;;;;;;6.90;6.30;;;6.30;99.90;;;;;;5026537;28;20053;-47
2023/04/22 00:43:18;;;;;;;6.35;5.70;;;6.30;99.90;;;;;;5034864;28;20049;-47
2023/04/22 00:45:47;;;;;;;7.60;5.82;;;6.40;99.90;;;;;;5047642;28;20064;-47
2023/04/22 00:48:15;;;;;;;5.97;5.35;;;6.40;99.90;;;;;;5049838;28;20044;-47
2023/04/22 00:50:42;;;;;;;5.45;5.03;;;6.40;99.90;;;;;;5053521;28;20421;-46
2023/04/22 00:53:11;;;;;;;6.32;5.13;;;6.40;99.90;;;;;;5045804;28;20059;-46
2023/04/22 00:55:39;;;;;;;5.93;5.10;;;6.40;99.90;;;;;;5047837;28;20049;-47
2023/04/22 00:58:07;;;;;;;6.85;5.25;;;6.20;99.90;;;;;;5050027;28;20055;-47
2023/04/22 01:00:35;;;;;;;7.65;6.93;;;6.00;99.90;;;;;;5048820;28;20437;-46
2023/04/22 01:03:03;;;;;;;12.10;8.77;;;5.90;99.90;;;;;;5055011;28;20059;-47
2023/04/22 01:05:32;;;;;;;10.35;7.28;;;6.00;99.90;;;;;;5058256;28;20056;-47
2023/04/22 01:08:00;;;;;;;6.25;5.63;;;6.10;99.90;;;;;;5050223;28;20045;-46
2023/04/22 01:10:28;;;;;;;6.88;4.68;;;6.10;99.90;;;;;;5047860;28;20045;-46
2023/04/22 01:12:56;;;;;;;6.78;6.00;;;5.80;99.90;;;;;;5027870;28;20455;-47
2023/04/22 01:15:23;;;;;;;12.85;7.25;;;5.60;99.90;;;;;;5029695;28;20092;-46
2023/04/22 01:17:52;;;;;;;6.32;5.72;;;5.50;99.90;;;;;;5035254;28;20522;-47
2023/04/22 01:20:21;;;;;;;6.47;5.88;;;5.70;99.90;;;;;;5041803;28;20060;-47
2023/04/22 01:22:53;;;;;;;7.75;7.03;;;5.80;99.90;;;;;;5048434;28;20044;-47
2023/04/22 01:25:21;;;;;;;15.80;6.15;;;5.70;99.90;;;;;;5049155;28;20048;-47
2023/04/22 01:27:49;;;;;;;8.43;5.55;;;5.80;99.90;;;;;;5028158;28;20128;-47
2023/04/22 01:30:17;;;;;;;8.27;6.05;;;5.80;99.90;;;;;;5024533;28;20060;-47
2023/04/22 01:32:45;;;;;;;8.55;5.45;;;5.90;99.90;;;;;;5024861;28;20426;-47
2023/04/22 01:35:13;;;;;;;8.15;6.63;;;5.80;99.90;;;;;;5036818;28;20055;-47
2023/04/22 01:37:41;;;;;;;8.38;7.10;;;5.80;99.90;;;;;;5044866;28;20049;-46
2023/04/22 01:40:10;;;;;;;8.65;6.47;;;5.90;99.90;;;;;;5044610;28;20055;-47
2023/04/22 01:42:38;;;;;;;8.23;7.38;;;5.90;99.90;;;;;;5046424;28;20080;-47
2023/04/22 01:45:06;;;;;;;7.72;7.03;;;6.00;99.90;;;;;;5045164;28;20056;-47
2023/04/22 01:47:34;;;;;;;8.95;8.00;;;6.00;99.90;;;;;;5045141;28;20060;-46
2023/04/22 01:50:01;;;;;;;7.00;5.93;;;6.00;99.90;;;;;;5043605;28;20573;-47
2023/04/22 01:52:29;;;;;;;10.95;6.13;;;5.90;99.90;;;;;;5024425;28;20402;-47
2023/04/22 01:54:57;;;;;;;8.25;6.32;;;5.80;99.90;;;;;;5024514;28;20042;-47
2023/04/22 01:57:25;;;;;;;7.32;6.50;;;5.70;99.90;;;;;;5024279;28;20514;-47
2023/04/22 01:59:52;;;;;;;11.18;8.80;;;5.80;99.90;;;;;;5023711;28;20042;-47
2023/04/22 02:02:21;;;;;;;10.38;7.63;;;5.90;99.90;;;;;;5038338;28;20045;-47
2023/04/22 02:04:49;;;;;;;13.88;7.88;;;6.00;99.90;;;;;;5024795;28;20057;-47
2023/04/22 02:07:17;;;;;;;8.75;7.82;;;6.00;99.90;;;;;;5023918;28;20045;-47
2023/04/22 02:09:45;;;;;;;6.57;5.65;;;6.00;99.90;;;;;;5024779;28;20064;-46
2023/04/22 02:12:15;;;;;;;8.13;7.00;;;6.00;99.90;;;;;;5031751;28;20050;-48
2023/04/22 02:14:42;;;;;;;8.30;6.97;;;5.90;99.90;;;;;;5026518;28;20049;-46
2023/04/22 02:17:10;;;;;;;6.60;5.90;;;5.90;99.90;;;;;;5033974;28;20601;-46
2023/04/22 02:19:39;;;;;;;5.82;5.32;;;5.80;99.90;;;;;;5028994;28;20383;-46
2023/04/22 02:22:07;;;;;;;9.00;6.05;;;5.60;99.90;;;;;;5025332;28;20053;-47
2023/04/22 02:24:34;;;;;;;8.32;6.93;;;5.60;99.90;;;;;;5059791;28;20052;-46
2023/04/22 02:27:02;;;;;;;7.15;6.03;;;5.60;99.90;;;;;;5050395;28;20529;-46
2023/04/22 02:29:31;;;;;;;8.52;6.05;;;5.60;99.90;;;;;;5034962;28;20060;-46
2023/04/22 02:31:59;;;;;;;8.55;6.28;;;5.30;99.90;;;;;;5026069;28;20045;-46
2023/04/22 02:34:28;;;;;;;7.90;7.10;;;5.20;99.90;;;;;;5028478;28;20060;-48
2023/04/22 02:36:55;;;;;;;7.13;6.30;;;5.30;99.90;;;;;;5025020;28;20045;-48
2023/04/22 02:39:24;;;;;;;13.60;7.88;;;5.30;99.90;;;;;;5024049;28;20056;-47
2023/04/22 02:41:52;;;;;;;8.80;7.57;;;5.40;99.90;;;;;;5023714;28;20392;-47
2023/04/22 02:44:19;;;;;;;8.77;7.88;;;5.50;99.90;;;;;;5051349;28;20048;-47
2023/04/22 02:46:48;;;;;;;12.18;10.30;;;5.50;99.90;;;;;;5052720;28;20049;-47
2023/04/22 02:49:16;;;;;;;12.02;8.93;;;5.60;99.90;;;;;;5073357;28;20053;-47
2023/04/22 02:51:45;;;;;;;9.82;8.07;;;5.60;99.90;;;;;;5061478;28;20037;-47
2023/04/22 02:54:12;;;;;;;12.45;9.23;;;5.60;99.90;;;;;;5046897;28;20045;-47
2023/04/22 02:56:40;;;;;;;11.85;10.73;;;5.60;99.90;;;;;;5049200;28;20067;-47
2023/04/22 02:59:07;;;;;;;13.88;10.52;;;5.60;99.90;;;;;;5048758;28;20048;-47
2023/04/22 03:01:35;;;;;;;10.45;8.60;;;5.70;99.90;;;;;;5047001;28;20068;-47
2023/04/22 03:04:05;;;;;;;12.60;9.55;;;5.70;99.90;;;;;;5044593;28;20421;-47
2023/04/22 03:06:33;;;;;;;9.70;7.68;;;5.80;99.90;;;;;;5046321;28;20080;-47
2023/04/22 03:09:01;;;;;;;8.25;6.95;;;5.90;99.90;;;;;;5045747;28;20049;-47
2023/04/22 03:11:28;;;;;;;7.35;6.65;;;6.10;99.90;;;;;;5046679;28;20377;-47
2023/04/22 03:13:56;;;;;;;10.77;7.43;;;6.10;99.90;;;;;;5046460;28;20045;-47
2023/04/22 03:16:23;;;;;;;5.32;4.93;;;6.10;99.90;;;;;;5045532;28;20049;-47
2023/04/22 03:18:53;;;;;;;6.72;5.15;;;6.10;99.90;;;;;;5045498;28;20056;-47
2023/04/22 03:21:21;;;;;;;5.10;4.18;;;6.00;99.90;;;;;;5062107;28;20049;-47
2023/04/22 03:23:50;;;;;;;5.10;4.50;;;6.10;99.90;;;;;;5060579;28;20408;-47
2023/04/22 03:26:17;;;;;;;8.05;3.80;;;6.10;99.90;;;;;;5061232;28;20413;-47
2023/04/22 03:28:45;;;;;;;5.22;3.28;;;6.10;99.90;;;;;;5044514;28;20090;-47
2023/04/22 03:31:12;;;;;;;3.65;3.00;;;6.10;99.90;;;;;;5046822;28;20048;-47
2023/04/22 03:33:40;;;;;;;3.70;3.33;;;6.10;99.90;;;;;;5038569;28;20065;-47
2023/04/22 03:36:17;;;;;;;3.00;2.65;;;6.20;99.90;;;;;;5045606;28;20041;-47
2023/04/22 03:38:45;;;;;;;3.25;2.95;;;6.20;99.90;;;;;;5044836;28;20053;-47
2023/04/22 03:41:13;;;;;;;4.82;3.03;;;6.20;99.90;;;;;;5047290;28;20061;-38
2023/04/22 03:43:45;;;;;;;3.25;2.92;;;6.10;99.90;;;;;;5044364;28;20049;-38
2023/04/22 03:46:12;;;;;;;3.83;3.53;;;6.10;99.90;;;;;;5046195;28;20489;-38
2023/04/22 03:48:45;;;;;;;3.67;3.38;;;6.00;99.90;;;;;;5045885;28;20049;-39
2023/04/22 03:51:24;;;;;;;5.05;4.60;;;5.90;99.90;;;;;;5044861;28;20061;-38
2023/04/22 03:53:52;;;;;;;2.90;2.70;;;5.90;99.90;;;;;;5048841;28;20069;-38
2023/04/22 03:56:23;;;;;;;4.40;3.05;;;5.80;99.90;;;;;;5044555;28;20056;-38
2023/04/22 03:58:53;;;;;;;3.10;2.90;;;5.70;99.90;;;;;;5043687;28;20377;-38
2023/04/22 04:01:22;;;;;;;2.92;2.58;;;5.50;99.90;;;;;;5039236;28;20052;-40
2023/04/22 04:03:52;;;;;;;4.07;3.67;;;5.30;99.90;;;;;;5037784;28;20500;-39
2023/04/22 04:06:21;;;;;;;3.30;3.00;;;5.10;99.90;;;;;;5044828;28;20053;-39
2023/04/22 04:08:49;;;;;;;3.05;2.85;;;5.00;99.90;;;;;;5061636;28;20421;-39
2023/04/22 04:11:16;;;;;;;3.90;3.55;;;5.10;99.90;;;;;;5055232;28;20253;-38
2023/04/22 04:13:44;;;;;;;4.43;3.45;;;5.20;99.90;;;;;;5027075;28;20062;-38
2023/04/22 04:16:23;;;;;;;3.60;3.30;;;5.30;99.90;;;;;;5055557;28;20049;-40
2023/04/22 04:18:59;;;;;;;3.42;3.13;;;5.30;99.90;;;;;;5032384;28;20397;-41
2023/04/22 04:21:28;;;;;;;3.92;3.60;;;5.20;99.90;;;;;;5044917;28;20052;-38
2023/04/22 04:23:55;;;;;;;3.63;3.33;;;4.90;99.90;;;;;;5047170;28;20063;-39
2023/04/22 04:26:27;;;;;;;3.70;2.60;;;4.70;99.90;;;;;;5047597;28;20040;-40
2023/04/22 04:29:01;;;;;;;3.35;3.10;;;4.50;99.90;;;;;;5065540;28;20503;-39
2023/04/22 04:31:29;;;;;;;4.75;3.85;;;4.40;99.90;;;;;;5043743;28;20049;-38
2023/04/22 04:33:59;;;;;;;3.53;3.15;;;4.30;99.90;;;;;;5025506;28;20057;-38
2023/04/22 04:36:31;;;;;;;4.43;3.78;;;4.20;99.90;;;;;;5060340;28;20064;-38
2023/04/22 04:39:10;;;;;;;5.18;3.33;;;4.20;99.90;;;;;;5044080;28;20052;-38
2023/04/22 04:41:40;;;;;;;4.50;3.95;;;4.20;99.90;;;;;;5044620;28;20049;-39
2023/04/22 04:44:08;;;;;;;3.92;3.55;;;4.20;99.90;;;;;;5026359;28;20041;-39
2023/04/22 04:46:37;;;;;;;3.97;3.17;;;4.30;99.90;;;;;;5028449;28;20445;-39
2023/04/22 04:49:11;;;;;;;4.18;3.70;;;4.50;99.90;;;;;;5045932;28;20061;-39
2023/04/22 04:51:55;;;;;;;3.83;3.53;;;4.90;99.90;;;;;;5043786;28;20430;-38
2023/04/22 04:54:23;;;;;;;4.72;4.32;;;5.20;99.90;;;;;;5060295;28;20048;-38
2023/04/22 04:56:51;;;;;;;4.10;3.47;;;5.40;99.90;;;;;;5044562;28;20049;-39
2023/04/22 04:59:19;;;;;;;4.32;2.38;;;5.70;99.90;;;;;;5043087;28;20041;-38
2023/04/22 05:01:47;;;;;;;2.83;2.63;;;6.00;99.90;;;;;;5045608;28;20288;-38
2023/04/22 05:04:15;;;;;;;3.28;3.00;;;6.30;99.90;;;;;;5043654;28;20048;-38
2023/04/22 05:06:43;;;;;;;3.10;2.90;;;6.50;99.90;;;;;;5043214;28;20053;-40
2023/04/22 05:09:22;;;;;;;3.45;3.15;;;6.70;99.90;;;;;;5042591;28;20052;-38
2023/04/22 05:11:50;;;;;;;3.58;2.78;;;7.00;99.90;;;;;;5058855;28;20041;-39
2023/04/22 05:14:20;;;;;;;2.70;2.30;;;7.30;99.90;;;;;;5042228;28;20048;-39
2023/04/22 05:16:48;;;;;;;2.92;2.63;;;7.60;99.90;;;;;;5048200;28;20045;-39
2023/04/22 05:19:15;;;;;;;2.58;2.38;;;8.00;99.90;;;;;;5037353;28;20052;-39
2023/04/22 05:21:44;;;;;;;2.53;2.33;;;8.30;99.90;;;;;;5043671;28;20067;-38
2023/04/22 05:24:12;;;;;;;5.03;2.42;;;8.60;99.90;;;;;;5044889;28;20068;-39
2023/04/22 05:26:40;;;;;;;3.03;2.25;;;8.80;99.90;;;;;;5043484;28;20352;-39
2023/04/22 05:29:13;;;;;;;2.15;2.00;;;9.00;99.90;;;;;;5063990;28;20261;-38
2023/04/22 05:31:41;;;;;;;2.47;2.38;;;9.20;99.90;;;;;;5038155;28;20531;-38
2023/04/22 05:34:10;;;;;;;2.50;2.28;;;9.40;99.90;;;;;;5043897;28;20052;-38
2023/04/22 05:36:38;;;;;;;3.35;2.20;;;9.90;99.90;;;;;;5042602;28;20048;-38
2023/04/22 05:39:07;;;;;;;2.40;2.10;;;10.40;99.90;;;;;;5043549;28;20037;-39
2023/04/22 05:41:35;;;;;;;4.82;2.58;;;10.80;99.90;;;;;;5043109;28;20062;-38
2023/04/22 05:44:06;;;;;;;2.53;2.33;;;11.20;99.90;;;;;;5041686;28;20056;-40
2023/04/22 05:46:35;;;;;;;2.53;2.30;;;11.70;99.90;;;;;;5044668;28;20045;-38
2023/04/22 05:49:03;;;;;;;2.28;2.08;;;12.10;99.90;;;;;;5043986;28;20072;-38
2023/04/22 05:51:56;;;;;;;2.75;2.25;;;12.50;99.90;;;;;;5042849;28;20049;-39
2023/04/22 05:54:29;;;;;;;1.58;1.48;;;12.90;99.90;;;;;;5042722;28;20200;-38
2023/04/22 05:56:57;;;;;;;1.95;1.83;;;13.30;99.90;;;;;;5045287;28;20068;-40
2023/04/22 05:59:25;;;;;;;1.70;1.38;;;13.80;99.90;;;;;;5043709;28;20489;-38
2023/04/22 06:01:53;;;;;;;1.73;1.63;;;13.90;99.90;;;;;;5059385;28;20044;-41
2023/04/22 06:04:20;;;;;;;1.60;1.50;;;14.00;99.90;;;;;;5044525;28;20087;-38
2023/04/22 06:06:52;;;;;;;1.60;1.50;;;14.20;99.90;;;;;;5042471;28;20052;-40
2023/04/22 06:09:20;;;;;;;2.53;2.33;;;14.50;99.90;;;;;;5044588;28;20053;-38
2023/04/22 06:11:48;;;;;;;1.88;1.77;;;14.50;99.90;;;;;;5043824;28;20485;-40
2023/04/22 06:14:15;;;;;;;1.85;1.52;;;14.60;99.90;;;;;;5043342;28;20528;-41
2023/04/22 06:16:44;;;;;;;2.50;1.80;;;14.80;99.90;;;;;;5059979;28;20063;-39
2023/04/22 06:19:12;;;;;;;1.73;1.27;;;15.20;99.90;;;;;;5042998;28;20037;-39
2023/04/22 06:21:41;;;;;;;1.23;1.10;;;15.70;99.90;;;;;;5043211;28;20525;-41
2023/04/22 06:24:09;;;;;;;2.65;1.65;;;16.20;99.90;;;;;;5060270;28;20533;-39
2023/04/22 06:26:37;;;;;;;2.35;2.15;;;16.60;99.90;;;;;;5076088;28;20049;-38
2023/04/22 06:29:05;;;;;;;1.42;1.27;;;17.30;99.20;;;;;;5047894;28;20071;-39
2023/04/22 06:31:33;;;;;;;2.00;1.80;;;17.50;98.50;;;;;;5062435;28;20049;-42
2023/04/22 06:34:01;;;;;;;2.40;1.50;;;17.80;96.60;;;;;;5063236;28;20426;-39
2023/04/22 06:36:28;;;;;;;2.17;1.58;;;17.90;95.30;;;;;;5047963;28;20045;-38
2023/04/22 06:39:02;;;;;;;1.60;1.50;;;17.70;98.10;;;;;;5046210;28;20516;-39
2023/04/22 06:41:43;;;;;;;5.00;1.50;;;17.60;98.70;;;;;;5063234;28;20509;-40
2023/04/22 06:44:26;;;;;;;1.30;1.20;;;17.40;99.80;;;;;;5053035;28;20089;-39
2023/04/22 06:47:12;;;;;;;4.47;1.50;;;16.70;99.90;;;;;;5046125;28;20049;-39
2023/04/22 06:49:48;;;;;;;1.23;1.13;;;16.00;99.90;;;;;;5032019;28;20061;-39
2023/04/22 06:52:28;;;;;;;1.65;1.45;;;15.50;99.90;;;;;;5042878;28;20125;-39
2023/04/22 06:54:58;;;;;;;3.03;1.30;;;16.20;99.90;;;;;;5045801;28;20045;-39
2023/04/22 06:57:25;;;;;;;5.28;1.50;;;16.70;99.90;;;;;;5046070;28;20052;-39
2023/04/22 06:59:53;;;;;;;1.50;1.40;;;17.20;99.90;;;;;;5048082;28;20524;-41
2023/04/22 07:02:23;;;;;;;1.00;1.00;;;17.60;99.80;;;;;;5045491;28;20045;-39
2023/04/22 07:04:50;;;;;;;1.80;1.17;;;18.10;98.00;;;;;;5048208;28;20049;-39
2023/04/22 07:07:18;;;;;;;1.65;1.52;;;18.40;96.20;;;;;;5041667;28;20269;-39
2023/04/22 07:09:45;;;;;;;1.80;1.70;;;18.10;97.70;;;;;;5063705;28;20041;-39
2023/04/22 07:12:13;;;;;;;1.90;1.60;;;17.90;96.30;;;;;;5046958;28;20053;-39
2023/04/22 07:14:44;;;;;;;1.30;1.20;;;17.70;98.10;;;;;;5047563;28;20044;-42
2023/04/22 07:17:12;;;;;;;1.33;1.20;;;17.80;99.90;;;;;;5048029;28;20052;-39
2023/04/22 07:19:39;;;;;;;2.33;1.52;;;18.10;99.90;;;;;;5047128;28;20056;-40
2023/04/22 07:22:07;;;;;;;1.30;1.10;;;18.30;98.10;;;;;;5046375;28;20064;-36
2023/04/22 07:24:36;;;;;;;2.40;1.48;;;18.30;96.70;;;;;;5047236;28;20424;-40
2023/04/22 07:27:03;;;;;;;1.30;1.20;;;18.90;94.40;;;;;;5039216;28;20049;-37
2023/04/22 07:29:32;;;;;;;1.67;1.58;;;20.00;91.90;;;;;;5025520;28;20064;-38
2023/04/22 07:31:59;;;;;;;1.60;1.20;;;20.30;91.50;;;;;;5035688;28;20619;-40
2023/04/22 07:34:27;;;;;;;3.28;1.15;;;19.90;90.50;;;;;;5028835;28;20796;-40
2023/04/22 07:36:54;;;;;;;1.05;0.90;;;20.10;92.10;;;;;;5027636;28;20057;-37
2023/04/22 07:39:22;;;;;;;1.30;1.17;;;20.40;87.20;;;;;;5026649;28;20537;-39
2023/04/22 07:41:50;;;;;;;1.30;1.20;;;20.40;88.30;;;;;;5026018;28;20053;-40
2023/04/22 07:44:20;;;;;;;1.02;0.75;;;20.80;85.20;;;;;;5025075;28;20053;-40
2023/04/22 07:46:49;;;;;;;1.05;1.05;;;20.70;82.40;;;;;;5032081;28;20278;-39
2023/04/22 07:49:16;;;;;;;1.52;1.42;;;20.50;89.40;;;;;;5046712;28;20079;-38
2023/04/22 07:51:44;;;;;;;0.75;0.75;;;20.50;81.30;;;;;;5046061;28;20041;-39
2023/04/22 07:54:12;;;;;;;1.90;1.20;;;21.00;84.60;;;;;;5039659;28;20045;-37
2023/04/22 07:56:39;;;;;;;1.95;1.30;;;22.10;80.20;;;;;;5045282;28;20048;-38
2023/04/22 07:59:07;;;;;;;1.52;1.35;;;22.50;79.80;;;;;;5045996;28;20045;-37
2023/04/22 08:01:34;;;;;;;1.42;1.23;;;22.40;77.80;;;;;;5045368;28;20068;-42
2023/04/22 08:04:02;;;;;;;3.00;1.80;;;22.70;78.00;;;;;;5045810;28;20053;-37
2023/04/22 08:06:30;;;;;;;1.40;1.30;;;23.30;74.00;;;;;;5046275;28;20064;-37
2023/04/22 08:08:58;;;;;;;1.88;1.42;;;23.20;76.80;;;;;;5047286;28;20056;-37
2023/04/22 08:11:25;;;;;;;1.77;1.67;;;23.50;76.90;;;;;;5045819;28;20733;-42
2023/04/22 08:13:54;;;;;;;1.73;1.60;;;23.80;76.00;;;;;;5041356;28;20273;-37
2023/04/22 08:16:21;;;;;;;1.45;1.35;;;24.10;76.50;;;;;;5045785;28;20045;-37
2023/04/22 08:18:50;;;;;;;2.42;1.65;;;25.00;71.50;;;;;;5044956;28;20048;-38
2023/04/22 08:21:18;;;;;;;1.92;1.73;;;24.20;72.40;;;;;;5046390;28;20071;-38
2023/04/22 08:23:46;;;;;;;1.48;1.38;;;23.20;74.30;;;;;;5046377;28;20049;-37
2023/04/22 08:26:15;;;;;;;2.08;1.88;;;22.60;77.00;;;;;;5046200;28;20497;-40
2023/04/22 08:28:43;;;;;;;1.35;1.25;;;22.40;75.90;;;;;;5042313;28;20260;-37
2023/04/22 08:31:11;;;;;;;1.80;1.42;;;22.90;73.30;;;;;;5044679;28;20049;-38
2023/04/22 08:33:40;;;;;;;2.83;2.65;;;22.80;74.90;;;;;;5046262;28;20552;-40
2023/04/22 08:36:09;;;;;;;1.65;1.55;;;23.30;74.80;;;;;;5045578;28;20040;-37
2023/04/22 08:38:37;;;;;;;1.73;1.40;;;23.80;74.60;;;;;;5036602;28;20494;-39
2023/04/22 08:41:06;;;;;;;1.58;1.48;;;23.60;73.00;;;;;;5045899;28;20053;-37
2023/04/22 08:43:34;;;;;;;2.78;1.50;;;23.00;73.20;;;;;;5044640;28;20049;-39
2023/04/22 08:46:01;;;;;;;2.65;1.60;;;23.50;72.30;;;;;;5046412;28;20060;-40
2023/04/22 08:48:30;;;;;;;1.75;1.27;;;22.50;74.70;;;;;;5042247;28;20456;-37
2023/04/22 08:50:59;;;;;;;1.63;1.15;;;21.10;76.90;;;;;;5043816;28;20052;-38
2023/04/22 08:53:26;;;;;;;1.38;1.27;;;20.70;76.00;;;;;;5044977;28;20048;-40
2023/04/22 08:55:55;;;;;;;1.60;1.48;;;21.00;83.30;;;;;;5045030;28;20060;-37
2023/04/22 08:58:23;;;;;;;2.30;1.25;;;22.50;75.20;;;;;;5044043;28;20536;-39
2023/04/22 09:00:55;;;;;;;1.10;1.00;;;23.30;71.50;;;;;;5046066;28;20497;-38
2023/04/22 09:03:22;;;;;;;1.33;1.00;;;22.60;72.10;;;;;;5042251;28;20041;-38
2023/04/22 09:05:51;;;;;;;3.60;1.50;;;21.30;74.80;;;;;;5045550;28;20516;-41
2023/04/22 09:08:19;;;;;;;0.75;0.75;;;20.60;74.60;;;;;;5045081;28;20060;-40
2023/04/22 09:10:47;;;;;;;1.10;1.00;;;20.00;76.60;;;;;;5044150;28;20052;-37
2023/04/22 09:13:16;;;;;;;0.88;0.77;;;19.80;81.30;;;;;;5044672;28;20300;-37
2023/04/22 09:15:44;;;;;;;1.10;1.00;;;19.50;77.40;;;;;;5043766;28;20349;-38
2023/04/22 09:18:15;;;;;;;1.88;1.67;;;19.30;82.10;;;;;;5038708;28;20075;-41
2023/04/22 09:20:43;;;;;;;2.50;1.00;;;19.20;87.30;;;;;;5037328;28;20487;-41
2023/04/22 09:23:12;;;;;;;1.00;0.90;;;19.00;88.30;;;;;;5044653;28;20037;-44
2023/04/22 09:25:40;;;;;;;1.48;1.00;;;18.70;87.20;;;;;;5044904;28;20119;-42
2023/04/22 09:28:11;;;;;;;1.25;1.15;;;18.80;89.20;;;;;;5043782;28;20053;-39
2023/04/22 09:30:39;;;;;;;7.03;1.10;;;18.90;91.00;;;;;;5044765;28;20037;-43
2023/04/22 09:33:08;;;;;;;1.25;0.93;;;18.70;85.20;;;;;;5043713;28;20517;-38
2023/04/22 09:35:40;;;;;;;1.48;1.27;;;18.60;88.30;;;;;;5045125;28;20048;-44
2023/04/22 09:38:11;;;;;;;1.67;1.30;;;18.40;89.20;;;;;;5044832;28;20497;-39
2023/04/22 09:40:43;;;;;;;1.50;1.40;;;18.30;89.50;;;;;;5044995;28;20493;-41
2023/04/22 09:43:11;;;;;;;1.38;1.17;;;18.40;92.10;;;;;;5043740;28;20052;-40
2023/04/22 09:45:41;;;;;;;1.45;1.35;;;18.50;91.00;;;;;;5045497;28;20049;-41
2023/04/22 09:48:13;;;;;;;1.90;1.55;;;18.70;86.70;;;;;;5045096;28;20044;-38
2023/04/22 09:50:46;;;;;;;3.17;1.05;;;18.50;86.40;;;;;;5039355;28;20047;-38
2023/04/22 09:53:19;;;;;;;1.40;0.93;;;18.40;90.90;;;;;;5053364;28;20068;-40
2023/04/22 09:55:49;;;;;;;0.90;0.80;;;18.40;86.20;;;;;;5039393;28;20048;-41
2023/04/22 09:58:22;;;;;;;3.05;1.27;;;18.50;93.80;;;;;;5040956;28;20505;-39
2023/04/22 10:00:55;;;;;;;1.08;0.98;;;18.70;91.70;;;;;;5043606;28;20505;-39
2023/04/22 10:03:23;;;;;;;1.13;1.02;;;18.60;90.90;;;;;;5048878;28;20048;-39
2023/04/22 10:05:51;;;;;;;2.42;1.52;;;18.80;85.70;;;;;;5049370;28;20497;-39
2023/04/22 10:08:19;;;;;;;4.25;1.00;;;18.80;88.20;;;;;;5049388;28;20056;-42
2023/04/22 10:10:47;;;;;;;1.38;1.27;;;18.90;89.70;;;;;;5038135;28;20384;-38
2023/04/22 10:13:15;;;;;;;0.80;0.77;;;19.00;91.10;;;;;;5048440;28;20071;-39
2023/04/22 10:15:50;;;;;;;2.75;1.08;;;18.80;83.10;;;;;;5046378;28;20175;-38
2023/04/22 10:18:23;;;;;;;1.70;1.10;;;19.00;91.80;;;;;;5048940;28;20560;-41
2023/04/22 10:20:52;;;;;;;0.95;0.80;;;19.10;88.80;;;;;;5048455;28;20053;-43
2023/04/22 10:23:21;;;;;;;1.25;1.10;;;19.10;86.40;;;;;;5048232;28;20056;-43
2023/04/22 10:25:55;;;;;;;0.73;0.73;;;18.90;90.70;;;;;;5045077;28;20513;-40
2023/04/22 10:28:26;;;;;;;0.95;0.88;;;18.90;82.50;;;;;;5045604;28;20045;-39
2023/04/22 10:30:54;;;;;;;1.42;1.33;;;18.80;84.60;;;;;;5046473;28;20052;-45
2023/04/22 10:33:33;;;;;;;1.23;0.90;;;18.80;85.70;;;;;;5046495;28;20056;-39
2023/04/22 10:36:07;;;;;;;2.50;1.33;;;19.00;83.60;;;;;;5047855;28;20053;-38
2023/04/22 10:38:48;;;;;;;1.00;0.95;;;19.00;87.30;;;;;;5044651;28;20426;-43
2023/04/22 10:41:21;;;;;;;;;;;19.10;77.10;;;;;;5045167;28;20057;-38
2023/04/22 10:43:57;;;;;;;0.80;0.80;;;19.10;81.80;;;;;;5046492;28;19932;-39
2023/04/22 10:46:35;;;;;;;2.58;1.20;;;19.00;89.10;;;;;;5048189;28;20057;-38
2023/04/22 10:49:17;;;;;;;0.80;0.80;;;19.20;87.50;;;;;;5048543;28;20492;-41
2023/04/22 10:51:57;;;;;;;0.95;0.85;;;19.20;80.50;;;;;;5047337;28;20053;-40
2023/04/22 10:54:27;;;;;;;0.80;0.80;;;19.20;87.90;;;;;;5035464;28;20048;-41
2023/04/22 10:57:11;;;;;;;1.33;0.80;;;19.20;85.10;;;;;;5048193;28;20048;-39
2023/04/22 10:59:46;;;;;;;1.77;1.00;;;19.30;82.60;;;;;;5045647;28;20045;-41
2023/04/22 11:02:18;;;;;;;0.80;0.80;;;19.50;84.10;;;;;;5040931;28;20049;-40
2023/04/22 11:04:46;;;;;;;1.55;1.13;;;19.50;81.30;;;;;;5043825;28;20053;-40
2023/04/22 11:07:21;;;;;;;0.70;0.70;;;19.60;81.30;;;;;;5045878;28;20045;-40
2023/04/22 11:09:50;;;;;;;4.25;0.93;;;19.60;85.30;;;;;;5047521;28;20075;-39
2023/04/22 11:12:41;;;;;;;1.15;1.10;;;19.70;77.20;;;;;;5045549;28;20053;-40
2023/04/22 11:15:14;;;;;;;1.08;0.98;;;19.50;78.80;;;;;;5047390;28;20048;-39
2023/04/22 11:17:49;;;;;;;3.50;1.63;;;19.60;85.50;;;;;;5047211;28;20071;-41
2023/04/22 11:20:17;;;;;;;1.30;1.20;;;19.80;83.60;;;;;;5047563;28;20052;-42
2023/04/22 11:22:50;;;;;;;1.95;1.42;;;20.00;81.90;;;;;;5047022;28;20041;-40
2023/04/22 11:25:19;;;;;;;1.35;1.25;;;19.70;84.60;;;;;;5045711;28;20066;-39
2023/04/22 11:27:46;;;;;;;1.17;0.90;;;19.80;91.90;;;;;;5045662;28;20076;-45
2023/04/22 11:30:22;;;;;;;1.05;0.95;;;19.80;90.90;;;;;;5045597;28;20059;-43
2023/04/22 11:32:58;;;;;;;0.80;0.80;;;20.10;88.30;;;;;;5047636;28;20056;-39
2023/04/22 11:35:31;;;;;;;1.50;1.20;;;20.20;84.90;;;;;;5046989;28;20418;-39
2023/04/22 11:38:03;;;;;;;6.35;1.52;;;20.20;83.70;;;;;;5048553;28;20052;-39
2023/04/22 11:40:36;;;;;;;1.60;0.80;;;20.00;87.10;;;;;;5047372;28;20434;-44
2023/04/22 11:43:08;;;;;;;0.90;0.80;;;20.00;82.20;;;;;;5040568;28;20434;-40
2023/04/22 11:45:38;;;;;;;5.50;1.73;;;20.00;82.90;;;;;;5043826;28;20053;-41
2023/04/22 11:48:07;;;;;;;1.17;1.08;;;20.00;90.90;;;;;;5048403;28;20280;-40
2023/04/22 11:50:37;;;;;;;1.63;1.27;;;20.10;82.60;;;;;;5047809;28;20371;-38
2023/04/22 11:53:19;;;;;;;5.97;1.25;;;20.10;90.30;;;;;;5047384;28;20049;-39
2023/04/22 11:55:50;;;;;;;2.00;1.85;;;20.10;85.90;;;;;;5047009;28;20045;-39
2023/04/22 11:58:23;;;;;;;1.98;1.67;;;20.10;92.20;;;;;;5047725;28;20489;-43
2023/04/22 12:00:52;;;;;;;1.83;1.15;;;20.10;90.80;;;;;;5046797;28;20080;-43
2023/04/22 12:03:28;;;;;;;0.80;0.80;;;20.00;86.90;;;;;;5047044;28;20053;-39
2023/04/22 12:05:57;;;;;;;1.95;1.75;;;20.00;79.50;;;;;;5047778;28;20080;-39
2023/04/22 12:08:30;;;;;;;9.30;1.63;;;20.00;81.40;;;;;;5043531;28;20056;-42
2023/04/22 12:11:05;;;;;;;2.17;1.95;;;20.10;89.70;;;;;;5046434;28;20056;-39
2023/04/22 12:13:44;;;;;;;7.43;1.98;;;20.30;90.90;;;;;;5042969;28;21060;-40
2023/04/22 12:16:14;;;;;;;2.00;1.83;;;20.30;90.30;;;;;;5043261;28;20052;-40
2023/04/22 12:18:54;;;;;;;2.72;2.15;;;20.40;87.40;;;;;;5046604;28;20394;-42
2023/04/22 12:21:27;;;;;;;1.33;1.00;;;20.40;91.40;;;;;;5046393;28;20072;-39
2023/04/22 12:24:03;;;;;;;1.83;1.45;;;20.50;82.40;;;;;;5040290;28;20049;-38
2023/04/22 12:26:31;;;;;;;1.20;1.10;;;20.50;85.30;;;;;;5044991;28;20080;-42
2023/04/22 12:28:59;;;;;;;0.80;0.80;;;20.60;85.20;;;;;;5045982;28;20040;-44
2023/04/22 12:31:27;;;;;;;1.60;1.50;;;20.70;85.10;;;;;;5046022;28;20053;-38
2023/04/22 12:33:55;;;;;;;1.90;1.45;;;20.90;82.50;;;;;;5046855;28;20053;-46
2023/04/22 12:36:23;;;;;;;1.63;1.33;;;20.80;87.80;;;;;;5045684;28;20407;-43
2023/04/22 12:38:51;;;;;;;1.75;1.52;;;20.90;90.80;;;;;;5044198;28;20041;-43
2023/04/22 12:41:19;;;;;;;1.48;1.38;;;21.10;82.80;;;;;;5044878;28;20049;-46
2023/04/22 12:43:47;;;;;;;1.45;1.10;;;20.90;83.20;;;;;;5036617;28;20052;-41
2023/04/22 12:46:15;;;;;;;1.67;1.45;;;20.70;81.30;;;;;;5043845;28;20060;-41
2023/04/22 12:48:43;;;;;;;2.30;1.10;;;20.70;84.70;;;;;;5045805;28;20060;-38
2023/04/22 12:51:11;;;;;;;1.75;1.65;;;20.80;81.00;;;;;;5044452;28;20494;-41
2023/04/22 12:53:39;;;;;;;2.80;1.45;;;20.70;83.50;;;;;;5044887;28;20071;-40
2023/04/22 12:56:07;;;;;;;1.77;1.50;;;20.80;80.90;;;;;;5045125;28;20045;-45
2023/04/22 12:58:35;;;;;;;1.05;0.98;;;20.60;79.70;;;;;;5030364;28;20045;-39
2023/04/22 13:01:02;;;;;;;1.90;1.70;;;20.30;81.50;;;;;;5022522;28;20053;-39
2023/04/22 13:03:30;;;;;;;0.98;0.98;;;20.40;84.10;;;;;;5021186;28;20055;-42